< < Back
Terminal Aerodrome Forecast


Current Version              Previous Versions:   1  2  3  4  5  6  7  8  9  

Terminal Aerodrome Forecast

858
FTUS42 KCAE 041123
TAFAGS
TAF
KAGS 041123Z 0412/0512 24004KT P6SM VCSH SCT045 BKN100
     FM041500 26010G20KT P6SM SCT100 BKN250
     FM041800 27012G22KT P6SM VCSH SCT045 BKN250
     FM050000 25009KT P6SM SCT070 BKN250
     FM050600 VRB03KT P6SM SCT120 BKN250=

Latest METAR

702
SAUS70 KWBC 040800 RRL
MTRAGS
METAR KAGS 040753Z AUTO 07005KT 10SM CLR 22/21 A3000 RMK AO2 RAB0656E25
SLP158 P0001 T02170211


USA.gov is the U.S. government's official web portal to all federal, state and local government web resources and services.